Terminal Aerodrome Forecast
Issued by NWS Grand Forks, ND

Home | Current Version | Previous Version | Graphics & Text | Print | Product List | Glossary Off
Versions: 1 2 3 4 5 6 7 8 9 10 11 12 13 14 15 16 17 18 19 20 21 22 23 24 25 26

839
FTUS43 KFGF 090520
TAFFAR
TAF
KFAR 090520Z 0906/1006 35015KT P6SM SKC
     FM090700 34012KT P6SM SCT250
     FM091300 34010KT P6SM BKN050
     FM092100 01006KT P6SM BKN250=

USA.gov is the U.S. government's official web portal to all federal, state and local government web resources and services.